sensor_id;sensor_type;location;lat;lon;timestamp;P1;durP1;ratioP1;P2;durP2;ratioP2
16133;SDS011;8172;45.018;5.972;2022-12-29T00:01:36;43.90;;;14.70;;
16133;SDS011;8172;45.018;5.972;2022-12-29T00:06:44;40.67;;;14.57;;
16133;SDS011;8172;45.018;5.972;2022-12-29T00:11:51;37.60;;;17.67;;
16133;SDS011;8172;45.018;5.972;2022-12-29T00:16:58;4.17;;;1.77;;
16133;SDS011;8172;45.018;5.972;2022-12-29T00:22:05;14.53;;;8.60;;
16133;SDS011;8172;45.018;5.972;2022-12-29T00:27:16;4.83;;;1.70;;
16133;SDS011;8172;45.018;5.972;2022-12-29T00:32:24;4.93;;;1.77;;
16133;SDS011;8172;45.018;5.972;2022-12-29T00:37:33;2.67;;;1.33;;
16133;SDS011;8172;45.018;5.972;2022-12-29T00:42:43;3.07;;;1.10;;
16133;SDS011;8172;45.018;5.972;2022-12-29T00:47:51;1.70;;;0.90;;
16133;SDS011;8172;45.018;5.972;2022-12-29T00:52:58;1.60;;;0.90;;
16133;SDS011;8172;45.018;5.972;2022-12-29T00:58:05;3.33;;;1.20;;
16133;SDS011;8172;45.018;5.972;2022-12-29T01:03:12;0.87;;;0.70;;
16133;SDS011;8172;45.018;5.972;2022-12-29T01:08:19;0.97;;;0.80;;
16133;SDS011;8172;45.018;5.972;2022-12-29T01:13:28;2.33;;;0.90;;
16133;SDS011;8172;45.018;5.972;2022-12-29T01:18:35;1.43;;;1.07;;
16133;SDS011;8172;45.018;5.972;2022-12-29T01:23:42;1.83;;;1.20;;
16133;SDS011;8172;45.018;5.972;2022-12-29T01:28:49;3.73;;;1.10;;
16133;SDS011;8172;45.018;5.972;2022-12-29T01:33:56;3.37;;;0.80;;
16133;SDS011;8172;45.018;5.972;2022-12-29T01:39:03;1.00;;;0.90;;
16133;SDS011;8172;45.018;5.972;2022-12-29T01:49:22;1.63;;;0.90;;
16133;SDS011;8172;45.018;5.972;2022-12-29T01:59:42;0.80;;;0.80;;
16133;SDS011;8172;45.018;5.972;2022-12-29T02:04:50;3.90;;;1.10;;
16133;SDS011;8172;45.018;5.972;2022-12-29T02:10:01;2.57;;;1.10;;
16133;SDS011;8172;45.018;5.972;2022-12-29T02:15:08;1.40;;;0.70;;
16133;SDS011;8172;45.018;5.972;2022-12-29T02:40:58;1.77;;;0.90;;
16133;SDS011;8172;45.018;5.972;2022-12-29T02:51:18;6.40;;;1.10;;
16133;SDS011;8172;45.018;5.972;2022-12-29T02:56:24;1.30;;;1.00;;
16133;SDS011;8172;45.018;5.972;2022-12-29T03:11:56;2.93;;;1.00;;
16133;SDS011;8172;45.018;5.972;2022-12-29T03:17:05;2.20;;;1.13;;
16133;SDS011;8172;45.018;5.972;2022-12-29T03:22:17;1.60;;;0.90;;
16133;SDS011;8172;45.018;5.972;2022-12-29T03:27:30;1.53;;;0.90;;
16133;SDS011;8172;45.018;5.972;2022-12-29T03:32:42;2.30;;;0.83;;
16133;SDS011;8172;45.018;5.972;2022-12-29T03:43:01;1.90;;;1.03;;
16133;SDS011;8172;45.018;5.972;2022-12-29T03:48:11;2.00;;;0.97;;
16133;SDS011;8172;45.018;5.972;2022-12-29T03:53:20;1.33;;;1.00;;
16133;SDS011;8172;45.018;5.972;2022-12-29T03:58:27;1.93;;;1.10;;
16133;SDS011;8172;45.018;5.972;2022-12-29T04:03:37;3.70;;;1.90;;
16133;SDS011;8172;45.018;5.972;2022-12-29T04:08:44;9.03;;;4.10;;
16133;SDS011;8172;45.018;5.972;2022-12-29T04:13:51;3.90;;;1.80;;
16133;SDS011;8172;45.018;5.972;2022-12-29T04:19:01;3.50;;;2.10;;
16133;SDS011;8172;45.018;5.972;2022-12-29T04:24:09;2.90;;;1.43;;
16133;SDS011;8172;45.018;5.972;2022-12-29T04:29:19;1.43;;;1.30;;
16133;SDS011;8172;45.018;5.972;2022-12-29T04:34:27;1.40;;;0.90;;
16133;SDS011;8172;45.018;5.972;2022-12-29T04:39:35;2.20;;;1.10;;
16133;SDS011;8172;45.018;5.972;2022-12-29T04:44:43;3.03;;;1.40;;
16133;SDS011;8172;45.018;5.972;2022-12-29T04:49:52;1.80;;;1.00;;
16133;SDS011;8172;45.018;5.972;2022-12-29T04:55:01;1.30;;;1.00;;
16133;SDS011;8172;45.018;5.972;2022-12-29T05:00:09;2.77;;;1.13;;
16133;SDS011;8172;45.018;5.972;2022-12-29T05:05:17;2.53;;;1.10;;
16133;SDS011;8172;45.018;5.972;2022-12-29T05:10:26;4.67;;;1.20;;
16133;SDS011;8172;45.018;5.972;2022-12-29T05:15:38;1.30;;;1.00;;
16133;SDS011;8172;45.018;5.972;2022-12-29T05:20:46;1.63;;;1.00;;
16133;SDS011;8172;45.018;5.972;2022-12-29T05:25:55;1.67;;;1.10;;
16133;SDS011;8172;45.018;5.972;2022-12-29T05:31:04;3.50;;;1.20;;
16133;SDS011;8172;45.018;5.972;2022-12-29T05:36:12;2.47;;;1.57;;
16133;SDS011;8172;45.018;5.972;2022-12-29T05:41:21;2.13;;;1.20;;
16133;SDS011;8172;45.018;5.972;2022-12-29T05:46:30;3.23;;;1.20;;
16133;SDS011;8172;45.018;5.972;2022-12-29T05:51:39;2.10;;;1.10;;
16133;SDS011;8172;45.018;5.972;2022-12-29T05:56:47;3.70;;;1.23;;
16133;SDS011;8172;45.018;5.972;2022-12-29T06:01:55;1.63;;;1.00;;
16133;SDS011;8172;45.018;5.972;2022-12-29T06:07:02;5.73;;;1.40;;
16133;SDS011;8172;45.018;5.972;2022-12-29T06:12:11;3.43;;;1.00;;
16133;SDS011;8172;45.018;5.972;2022-12-29T06:17:19;24.07;;;10.17;;
16133;SDS011;8172;45.018;5.972;2022-12-29T06:22:27;5.63;;;1.90;;
16133;SDS011;8172;45.018;5.972;2022-12-29T06:27:35;1.67;;;1.10;;
16133;SDS011;8172;45.018;5.972;2022-12-29T06:32:42;5.30;;;1.30;;
16133;SDS011;8172;45.018;5.972;2022-12-29T06:37:49;1.83;;;1.20;;
16133;SDS011;8172;45.018;5.972;2022-12-29T06:42:57;2.70;;;1.40;;
16133;SDS011;8172;45.018;5.972;2022-12-29T06:48:06;3.03;;;1.30;;
16133;SDS011;8172;45.018;5.972;2022-12-29T06:53:13;5.53;;;3.37;;
16133;SDS011;8172;45.018;5.972;2022-12-29T06:58:20;2.70;;;1.40;;
16133;SDS011;8172;45.018;5.972;2022-12-29T07:03:27;3.50;;;1.40;;
16133;SDS011;8172;45.018;5.972;2022-12-29T07:08:34;8.37;;;4.63;;
16133;SDS011;8172;45.018;5.972;2022-12-29T07:13:41;17.80;;;9.63;;
16133;SDS011;8172;45.018;5.972;2022-12-29T07:18:49;19.80;;;11.03;;
16133;SDS011;8172;45.018;5.972;2022-12-29T07:23:56;16.47;;;9.90;;
16133;SDS011;8172;45.018;5.972;2022-12-29T07:29:03;17.20;;;10.00;;
16133;SDS011;8172;45.018;5.972;2022-12-29T07:34:11;10.07;;;4.80;;
16133;SDS011;8172;45.018;5.972;2022-12-29T07:39:17;17.83;;;11.30;;
16133;SDS011;8172;45.018;5.972;2022-12-29T07:44:25;33.63;;;17.40;;
16133;SDS011;8172;45.018;5.972;2022-12-29T07:49:33;13.37;;;8.20;;
16133;SDS011;8172;45.018;5.972;2022-12-29T07:54:41;18.17;;;12.83;;
16133;SDS011;8172;45.018;5.972;2022-12-29T07:59:48;19.50;;;16.30;;
16133;SDS011;8172;45.018;5.972;2022-12-29T08:04:55;29.00;;;15.30;;
16133;SDS011;8172;45.018;5.972;2022-12-29T08:10:02;12.17;;;7.30;;
16133;SDS011;8172;45.018;5.972;2022-12-29T08:15:11;10.23;;;6.70;;
16133;SDS011;8172;45.018;5.972;2022-12-29T08:20:18;3.83;;;2.70;;
16133;SDS011;8172;45.018;5.972;2022-12-29T08:25:25;7.00;;;4.90;;
16133;SDS011;8172;45.018;5.972;2022-12-29T08:30:32;9.27;;;6.10;;
16133;SDS011;8172;45.018;5.972;2022-12-29T08:35:40;8.33;;;5.27;;
16133;SDS011;8172;45.018;5.972;2022-12-29T08:40:46;3.70;;;1.80;;
16133;SDS011;8172;45.018;5.972;2022-12-29T08:45:54;1.90;;;1.40;;
16133;SDS011;8172;45.018;5.972;2022-12-29T08:51:01;1.80;;;1.27;;
16133;SDS011;8172;45.018;5.972;2022-12-29T08:56:09;2.17;;;1.30;;
16133;SDS011;8172;45.018;5.972;2022-12-29T09:01:18;4.03;;;1.70;;
16133;SDS011;8172;45.018;5.972;2022-12-29T09:06:26;1.90;;;1.37;;
16133;SDS011;8172;45.018;5.972;2022-12-29T09:11:34;2.43;;;1.23;;
16133;SDS011;8172;45.018;5.972;2022-12-29T09:16:41;3.67;;;1.30;;
16133;SDS011;8172;45.018;5.972;2022-12-29T09:21:50;1.77;;;1.10;;
16133;SDS011;8172;45.018;5.972;2022-12-29T09:26:57;3.10;;;1.50;;
16133;SDS011;8172;45.018;5.972;2022-12-29T09:32:04;2.73;;;1.40;;
16133;SDS011;8172;45.018;5.972;2022-12-29T09:37:14;2.33;;;1.20;;
16133;SDS011;8172;45.018;5.972;2022-12-29T09:47:31;2.57;;;1.40;;
16133;SDS011;8172;45.018;5.972;2022-12-29T09:52:40;2.93;;;1.40;;
16133;SDS011;8172;45.018;5.972;2022-12-29T09:57:49;3.90;;;1.20;;
16133;SDS011;8172;45.018;5.972;2022-12-29T10:03:00;3.00;;;1.40;;
16133;SDS011;8172;45.018;5.972;2022-12-29T10:14:33;1.80;;;1.20;;
16133;SDS011;8172;45.018;5.972;2022-12-29T10:18:34;4.40;;;1.20;;
16133;SDS011;8172;45.018;5.972;2022-12-29T10:23:40;4.47;;;1.40;;
16133;SDS011;8172;45.018;5.972;2022-12-29T10:28:51;4.50;;;1.30;;
16133;SDS011;8172;45.018;5.972;2022-12-29T10:34:03;2.87;;;1.20;;
16133;SDS011;8172;45.018;5.972;2022-12-29T10:44:22;2.43;;;1.40;;
16133;SDS011;8172;45.018;5.972;2022-12-29T10:49:32;2.17;;;1.20;;
16133;SDS011;8172;45.018;5.972;2022-12-29T10:54:45;3.27;;;1.30;;
16133;SDS011;8172;45.018;5.972;2022-12-29T10:59:52;3.23;;;1.23;;
16133;SDS011;8172;45.018;5.972;2022-12-29T11:15:19;2.47;;;1.13;;
16133;SDS011;8172;45.018;5.972;2022-12-29T11:25:35;3.40;;;1.40;;
16133;SDS011;8172;45.018;5.972;2022-12-29T11:30:41;2.73;;;1.20;;
16133;SDS011;8172;45.018;5.972;2022-12-29T11:35:49;1.43;;;1.00;;
16133;SDS011;8172;45.018;5.972;2022-12-29T11:40:56;3.70;;;1.10;;
16133;SDS011;8172;45.018;5.972;2022-12-29T11:46:04;2.53;;;1.10;;
16133;SDS011;8172;45.018;5.972;2022-12-29T11:51:12;3.23;;;0.90;;
16133;SDS011;8172;45.018;5.972;2022-12-29T11:56:32;1.80;;;1.00;;
16133;SDS011;8172;45.018;5.972;2022-12-29T12:01:36;1.73;;;1.00;;
16133;SDS011;8172;45.018;5.972;2022-12-29T12:06:49;1.40;;;1.00;;
16133;SDS011;8172;45.018;5.972;2022-12-29T12:11:55;3.17;;;1.00;;
16133;SDS011;8172;45.018;5.972;2022-12-29T12:17:04;1.63;;;1.00;;
16133;SDS011;8172;45.018;5.972;2022-12-29T12:22:19;2.00;;;1.00;;
16133;SDS011;8172;45.018;5.972;2022-12-29T12:27:28;2.40;;;1.07;;
16133;SDS011;8172;45.018;5.972;2022-12-29T12:37:49;3.10;;;1.10;;
16133;SDS011;8172;45.018;5.972;2022-12-29T12:58:29;2.50;;;1.20;;
16133;SDS011;8172;45.018;5.972;2022-12-29T13:24:16;1.73;;;1.17;;
16133;SDS011;8172;45.018;5.972;2022-12-29T13:29:23;2.23;;;1.30;;
16133;SDS011;8172;45.018;5.972;2022-12-29T13:39:42;3.33;;;1.40;;
16133;SDS011;8172;45.018;5.972;2022-12-29T13:49:58;5.57;;;2.20;;
16133;SDS011;8172;45.018;5.972;2022-12-29T14:00:19;2.37;;;1.40;;
16133;SDS011;8172;45.018;5.972;2022-12-29T14:05:29;3.23;;;1.60;;
16133;SDS011;8172;45.018;5.972;2022-12-29T14:10:45;6.33;;;1.70;;
16133;SDS011;8172;45.018;5.972;2022-12-29T14:15:51;2.23;;;1.40;;
16133;SDS011;8172;45.018;5.972;2022-12-29T14:21:03;7.33;;;3.73;;
16133;SDS011;8172;45.018;5.972;2022-12-29T14:36:34;4.53;;;1.60;;
16133;SDS011;8172;45.018;5.972;2022-12-29T14:41:40;3.53;;;1.77;;
16133;SDS011;8172;45.018;5.972;2022-12-29T14:46:54;4.80;;;2.40;;
16133;SDS011;8172;45.018;5.972;2022-12-29T14:52:05;2.93;;;1.70;;
16133;SDS011;8172;45.018;5.972;2022-12-29T14:57:14;3.53;;;1.73;;
16133;SDS011;8172;45.018;5.972;2022-12-29T15:02:19;4.17;;;1.80;;
16133;SDS011;8172;45.018;5.972;2022-12-29T15:07:28;3.60;;;1.97;;
16133;SDS011;8172;45.018;5.972;2022-12-29T15:12:39;2.90;;;1.80;;
16133;SDS011;8172;45.018;5.972;2022-12-29T15:17:46;4.43;;;2.10;;
16133;SDS011;8172;45.018;5.972;2022-12-29T15:28:04;4.37;;;1.77;;
16133;SDS011;8172;45.018;5.972;2022-12-29T15:38:24;4.63;;;1.87;;
16133;SDS011;8172;45.018;5.972;2022-12-29T15:43:38;4.30;;;2.00;;
16133;SDS011;8172;45.018;5.972;2022-12-29T15:49:04;6.10;;;2.50;;
16133;SDS011;8172;45.018;5.972;2022-12-29T15:59:22;3.27;;;1.63;;
16133;SDS011;8172;45.018;5.972;2022-12-29T16:04:31;3.83;;;1.83;;
16133;SDS011;8172;45.018;5.972;2022-12-29T16:09:42;4.37;;;1.80;;
16133;SDS011;8172;45.018;5.972;2022-12-29T16:14:54;5.53;;;1.70;;
16133;SDS011;8172;45.018;5.972;2022-12-29T16:20:01;2.87;;;1.53;;
16133;SDS011;8172;45.018;5.972;2022-12-29T16:30:20;4.77;;;1.70;;
16133;SDS011;8172;45.018;5.972;2022-12-29T16:35:29;2.03;;;1.50;;
16133;SDS011;8172;45.018;5.972;2022-12-29T16:40:49;4.40;;;1.80;;
16133;SDS011;8172;45.018;5.972;2022-12-29T16:56:16;2.93;;;1.40;;
16133;SDS011;8172;45.018;5.972;2022-12-29T17:01:16;1.87;;;1.40;;
16133;SDS011;8172;45.018;5.972;2022-12-29T17:06:24;3.30;;;1.70;;
16133;SDS011;8172;45.018;5.972;2022-12-29T17:11:32;3.37;;;1.50;;
16133;SDS011;8172;45.018;5.972;2022-12-29T17:16:41;4.20;;;1.63;;
16133;SDS011;8172;45.018;5.972;2022-12-29T17:21:48;12.67;;;5.17;;
16133;SDS011;8172;45.018;5.972;2022-12-29T17:26:56;4.17;;;3.13;;
16133;SDS011;8172;45.018;5.972;2022-12-29T17:32:06;9.17;;;4.63;;
16133;SDS011;8172;45.018;5.972;2022-12-29T17:42:26;7.83;;;3.53;;
16133;SDS011;8172;45.018;5.972;2022-12-29T17:47:34;4.07;;;1.77;;
16133;SDS011;8172;45.018;5.972;2022-12-29T17:52:43;4.70;;;2.57;;
16133;SDS011;8172;45.018;5.972;2022-12-29T17:57:52;2.67;;;1.70;;
16133;SDS011;8172;45.018;5.972;2022-12-29T18:03:00;3.60;;;1.87;;
16133;SDS011;8172;45.018;5.972;2022-12-29T18:08:08;6.07;;;4.00;;
16133;SDS011;8172;45.018;5.972;2022-12-29T18:13:19;4.80;;;1.93;;
16133;SDS011;8172;45.018;5.972;2022-12-29T18:18:26;3.43;;;2.57;;
16133;SDS011;8172;45.018;5.972;2022-12-29T18:23:34;9.67;;;4.40;;
16133;SDS011;8172;45.018;5.972;2022-12-29T18:28:41;6.83;;;1.80;;
16133;SDS011;8172;45.018;5.972;2022-12-29T18:33:49;2.60;;;1.73;;
16133;SDS011;8172;45.018;5.972;2022-12-29T18:38:57;5.00;;;2.60;;
16133;SDS011;8172;45.018;5.972;2022-12-29T18:44:04;12.97;;;7.77;;
16133;SDS011;8172;45.018;5.972;2022-12-29T18:49:15;24.20;;;14.37;;
16133;SDS011;8172;45.018;5.972;2022-12-29T18:54:24;18.07;;;9.27;;
16133;SDS011;8172;45.018;5.972;2022-12-29T18:59:32;22.23;;;13.37;;
16133;SDS011;8172;45.018;5.972;2022-12-29T19:04:40;26.90;;;12.83;;
16133;SDS011;8172;45.018;5.972;2022-12-29T19:09:47;4.40;;;2.10;;
16133;SDS011;8172;45.018;5.972;2022-12-29T19:14:58;28.87;;;15.33;;
16133;SDS011;8172;45.018;5.972;2022-12-29T19:20:06;4.33;;;1.50;;
16133;SDS011;8172;45.018;5.972;2022-12-29T19:25:16;2.50;;;1.53;;
16133;SDS011;8172;45.018;5.972;2022-12-29T19:30:23;15.20;;;8.20;;
16133;SDS011;8172;45.018;5.972;2022-12-29T19:35:30;27.33;;;12.60;;
16133;SDS011;8172;45.018;5.972;2022-12-29T19:40:40;26.83;;;14.57;;
16133;SDS011;8172;45.018;5.972;2022-12-29T19:45:47;16.37;;;9.37;;
16133;SDS011;8172;45.018;5.972;2022-12-29T19:56:08;4.93;;;2.70;;
16133;SDS011;8172;45.018;5.972;2022-12-29T20:01:17;4.03;;;2.13;;
16133;SDS011;8172;45.018;5.972;2022-12-29T20:06:28;2.03;;;1.40;;
16133;SDS011;8172;45.018;5.972;2022-12-29T20:11:35;5.30;;;2.20;;
16133;SDS011;8172;45.018;5.972;2022-12-29T20:16:42;4.53;;;2.40;;
16133;SDS011;8172;45.018;5.972;2022-12-29T20:21:51;8.53;;;4.80;;
16133;SDS011;8172;45.018;5.972;2022-12-29T20:26:58;9.53;;;5.83;;
16133;SDS011;8172;45.018;5.972;2022-12-29T20:32:08;12.57;;;6.97;;
16133;SDS011;8172;45.018;5.972;2022-12-29T20:37:17;4.20;;;2.70;;
16133;SDS011;8172;45.018;5.972;2022-12-29T20:42:24;3.17;;;1.80;;
16133;SDS011;8172;45.018;5.972;2022-12-29T20:47:32;8.33;;;4.67;;
16133;SDS011;8172;45.018;5.972;2022-12-29T20:52:40;9.17;;;4.23;;
16133;SDS011;8172;45.018;5.972;2022-12-29T20:57:48;2.17;;;1.47;;
16133;SDS011;8172;45.018;5.972;2022-12-29T21:02:57;4.73;;;1.60;;
16133;SDS011;8172;45.018;5.972;2022-12-29T21:08:05;4.80;;;1.50;;
16133;SDS011;8172;45.018;5.972;2022-12-29T21:13:13;6.23;;;3.30;;
16133;SDS011;8172;45.018;5.972;2022-12-29T21:18:25;9.20;;;4.60;;
16133;SDS011;8172;45.018;5.972;2022-12-29T21:23:36;4.57;;;3.27;;
16133;SDS011;8172;45.018;5.972;2022-12-29T21:28:44;3.67;;;2.37;;
16133;SDS011;8172;45.018;5.972;2022-12-29T21:33:52;2.80;;;1.50;;
16133;SDS011;8172;45.018;5.972;2022-12-29T21:39:01;6.47;;;2.60;;
16133;SDS011;8172;45.018;5.972;2022-12-29T21:44:08;6.73;;;3.80;;
16133;SDS011;8172;45.018;5.972;2022-12-29T21:49:17;3.30;;;1.60;;
16133;SDS011;8172;45.018;5.972;2022-12-29T21:54:26;5.13;;;1.70;;
16133;SDS011;8172;45.018;5.972;2022-12-29T21:59:36;2.93;;;1.60;;
16133;SDS011;8172;45.018;5.972;2022-12-29T22:04:45;7.33;;;3.70;;
16133;SDS011;8172;45.018;5.972;2022-12-29T22:09:54;2.70;;;1.77;;
16133;SDS011;8172;45.018;5.972;2022-12-29T22:15:03;3.00;;;1.73;;
16133;SDS011;8172;45.018;5.972;2022-12-29T22:20:13;6.00;;;2.13;;
16133;SDS011;8172;45.018;5.972;2022-12-29T22:25:27;3.13;;;1.93;;
16133;SDS011;8172;45.018;5.972;2022-12-29T22:30:45;2.33;;;1.60;;
16133;SDS011;8172;45.018;5.972;2022-12-29T22:35:59;2.13;;;1.50;;
16133;SDS011;8172;45.018;5.972;2022-12-29T22:41:06;3.40;;;1.73;;
16133;SDS011;8172;45.018;5.972;2022-12-29T22:46:14;3.30;;;1.67;;
16133;SDS011;8172;45.018;5.972;2022-12-29T22:51:23;4.10;;;2.03;;
16133;SDS011;8172;45.018;5.972;2022-12-29T22:56:33;6.73;;;1.93;;
16133;SDS011;8172;45.018;5.972;2022-12-29T23:01:44;4.13;;;1.80;;
16133;SDS011;8172;45.018;5.972;2022-12-29T23:06:52;7.20;;;2.30;;
16133;SDS011;8172;45.018;5.972;2022-12-29T23:11:59;2.90;;;1.60;;
16133;SDS011;8172;45.018;5.972;2022-12-29T23:17:06;2.70;;;1.70;;
16133;SDS011;8172;45.018;5.972;2022-12-29T23:22:13;5.63;;;2.00;;
16133;SDS011;8172;45.018;5.972;2022-12-29T23:27:20;4.80;;;1.90;;
16133;SDS011;8172;45.018;5.972;2022-12-29T23:32:28;4.63;;;1.60;;
16133;SDS011;8172;45.018;5.972;2022-12-29T23:37:35;3.33;;;1.60;;
16133;SDS011;8172;45.018;5.972;2022-12-29T23:42:42;4.13;;;1.87;;
16133;SDS011;8172;45.018;5.972;2022-12-29T23:47:49;6.80;;;2.83;;
16133;SDS011;8172;45.018;5.972;2022-12-29T23:52:57;3.13;;;2.10;;
16133;SDS011;8172;45.018;5.972;2022-12-29T23:58:04;6.00;;;3.47;;
